sensor_id;sensor_type;location;lat;lon;timestamp;P1;durP1;ratioP1;P2;durP2;ratioP2
46491;SDS011;32206;51.446;6.792;2023-04-15T00:00:45;7.90;;;5.07;;
46491;SDS011;32206;51.446;6.792;2023-04-15T00:06:36;8.65;;;5.68;;
46491;SDS011;32206;51.446;6.792;2023-04-15T00:09:02;9.18;;;5.03;;
46491;SDS011;32206;51.446;6.792;2023-04-15T00:11:27;10.48;;;5.00;;
46491;SDS011;32206;51.446;6.792;2023-04-15T00:13:53;8.45;;;5.60;;
46491;SDS011;32206;51.446;6.792;2023-04-15T00:16:19;7.45;;;5.30;;
46491;SDS011;32206;51.446;6.792;2023-04-15T00:22:07;17.75;;;5.75;;
46491;SDS011;32206;51.446;6.792;2023-04-15T00:27:55;9.15;;;6.22;;
46491;SDS011;32206;51.446;6.792;2023-04-15T00:33:42;11.80;;;5.80;;
46491;SDS011;32206;51.446;6.792;2023-04-15T00:36:08;8.40;;;5.53;;
46491;SDS011;32206;51.446;6.792;2023-04-15T00:38:37;10.60;;;5.55;;
46491;SDS011;32206;51.446;6.792;2023-04-15T00:44:25;8.80;;;6.13;;
46491;SDS011;32206;51.446;6.792;2023-04-15T00:46:51;8.18;;;5.32;;
46491;SDS011;32206;51.446;6.792;2023-04-15T00:52:39;12.05;;;6.30;;
46491;SDS011;32206;51.446;6.792;2023-04-15T01:01:49;9.55;;;6.00;;
46491;SDS011;32206;51.446;6.792;2023-04-15T01:07:37;9.80;;;5.25;;
46491;SDS011;32206;51.446;6.792;2023-04-15T01:13:25;9.95;;;5.90;;
46491;SDS011;32206;51.446;6.792;2023-04-15T01:15:52;8.90;;;6.18;;
46491;SDS011;32206;51.446;6.792;2023-04-15T01:18:21;10.35;;;5.75;;
46491;SDS011;32206;51.446;6.792;2023-04-15T01:20:47;9.90;;;5.90;;
46491;SDS011;32206;51.446;6.792;2023-04-15T01:23:12;12.68;;;6.47;;
46491;SDS011;32206;51.446;6.792;2023-04-15T01:25:38;9.38;;;5.80;;
46491;SDS011;32206;51.446;6.792;2023-04-15T01:28:05;11.80;;;5.97;;
46491;SDS011;32206;51.446;6.792;2023-04-15T01:30:33;11.48;;;6.15;;
46491;SDS011;32206;51.446;6.792;2023-04-15T01:33:11;7.45;;;6.45;;
46491;SDS011;32206;51.446;6.792;2023-04-15T01:35:37;8.20;;;6.70;;
46491;SDS011;32206;51.446;6.792;2023-04-15T01:38:06;16.65;;;6.18;;
46491;SDS011;32206;51.446;6.792;2023-04-15T01:47:17;10.40;;;6.47;;
46491;SDS011;32206;51.446;6.792;2023-04-15T01:49:42;7.88;;;6.40;;
46491;SDS011;32206;51.446;6.792;2023-04-15T01:52:08;9.43;;;6.95;;
46491;SDS011;32206;51.446;6.792;2023-04-15T01:54:34;8.52;;;6.25;;
46491;SDS011;32206;51.446;6.792;2023-04-15T02:07:06;10.23;;;7.57;;
46491;SDS011;32206;51.446;6.792;2023-04-15T02:09:32;9.93;;;7.28;;
46491;SDS011;32206;51.446;6.792;2023-04-15T02:14:57;10.70;;;6.47;;
46491;SDS011;32206;51.446;6.792;2023-04-15T02:17:23;15.73;;;7.38;;
46491;SDS011;32206;51.446;6.792;2023-04-15T02:19:49;11.70;;;7.93;;
46491;SDS011;32206;51.446;6.792;2023-04-15T02:22:14;10.55;;;7.55;;
46491;SDS011;32206;51.446;6.792;2023-04-15T02:24:42;8.45;;;7.28;;
46491;SDS011;32206;51.446;6.792;2023-04-15T02:30:35;11.00;;;7.45;;
46491;SDS011;32206;51.446;6.792;2023-04-15T02:33:00;12.90;;;8.18;;
46491;SDS011;32206;51.446;6.792;2023-04-15T02:35:27;9.35;;;7.53;;
46491;SDS011;32206;51.446;6.792;2023-04-15T02:37:52;11.15;;;7.57;;
46491;SDS011;32206;51.446;6.792;2023-04-15T02:40:18;9.32;;;7.53;;
46491;SDS011;32206;51.446;6.792;2023-04-15T02:46:06;9.55;;;7.28;;
46491;SDS011;32206;51.446;6.792;2023-04-15T02:55:16;8.18;;;7.13;;
46491;SDS011;32206;51.446;6.792;2023-04-15T02:57:42;14.65;;;8.90;;
46491;SDS011;32206;51.446;6.792;2023-04-15T03:13:36;9.57;;;7.78;;
46491;SDS011;32206;51.446;6.792;2023-04-15T03:16:03;9.55;;;7.63;;
46491;SDS011;32206;51.446;6.792;2023-04-15T03:18:29;12.52;;;7.10;;
46491;SDS011;32206;51.446;6.792;2023-04-15T03:24:17;11.48;;;7.93;;
46491;SDS011;32206;51.446;6.792;2023-04-15T03:30:05;8.73;;;7.85;;
46491;SDS011;32206;51.446;6.792;2023-04-15T03:32:31;13.02;;;8.20;;
46491;SDS011;32206;51.446;6.792;2023-04-15T03:34:57;10.15;;;8.10;;
46491;SDS011;32206;51.446;6.792;2023-04-15T03:37:23;12.10;;;8.38;;
46491;SDS011;32206;51.446;6.792;2023-04-15T03:39:48;15.20;;;8.70;;
46491;SDS011;32206;51.446;6.792;2023-04-15T03:42:14;14.02;;;8.25;;
46491;SDS011;32206;51.446;6.792;2023-04-15T03:44:40;11.70;;;7.55;;
46491;SDS011;32206;51.446;6.792;2023-04-15T03:47:06;10.13;;;7.50;;
46491;SDS011;32206;51.446;6.792;2023-04-15T03:49:31;10.68;;;8.20;;
46491;SDS011;32206;51.446;6.792;2023-04-15T03:51:57;9.80;;;8.70;;
46491;SDS011;32206;51.446;6.792;2023-04-15T03:54:23;9.57;;;8.18;;
46491;SDS011;32206;51.446;6.792;2023-04-15T04:03:33;10.10;;;7.70;;
46491;SDS011;32206;51.446;6.792;2023-04-15T04:09:20;11.88;;;7.55;;
46491;SDS011;32206;51.446;6.792;2023-04-15T04:15:08;11.23;;;6.88;;
46491;SDS011;32206;51.446;6.792;2023-04-15T04:17:34;8.10;;;7.20;;
46491;SDS011;32206;51.446;6.792;2023-04-15T04:20:00;13.52;;;7.40;;
46491;SDS011;32206;51.446;6.792;2023-04-15T04:22:26;10.10;;;7.30;;
46491;SDS011;32206;51.446;6.792;2023-04-15T04:24:52;11.38;;;7.85;;
46491;SDS011;32206;51.446;6.792;2023-04-15T04:34:02;10.13;;;7.68;;
46491;SDS011;32206;51.446;6.792;2023-04-15T04:36:27;8.40;;;7.50;;
46491;SDS011;32206;51.446;6.792;2023-04-15T04:38:53;14.60;;;8.55;;
46491;SDS011;32206;51.446;6.792;2023-04-15T04:41:18;11.20;;;7.80;;
46491;SDS011;32206;51.446;6.792;2023-04-15T04:47:06;19.75;;;8.60;;
46491;SDS011;32206;51.446;6.792;2023-04-15T04:49:32;9.00;;;6.93;;
46491;SDS011;32206;51.446;6.792;2023-04-15T04:55:20;18.83;;;10.90;;
46491;SDS011;32206;51.446;6.792;2023-04-15T04:57:45;11.77;;;7.68;;
46491;SDS011;32206;51.446;6.792;2023-04-15T05:00:11;10.65;;;7.88;;
46491;SDS011;32206;51.446;6.792;2023-04-15T05:02:38;10.57;;;7.88;;
46491;SDS011;32206;51.446;6.792;2023-04-15T05:05:03;9.93;;;7.68;;
46491;SDS011;32206;51.446;6.792;2023-04-15T05:07:30;10.05;;;7.85;;
46491;SDS011;32206;51.446;6.792;2023-04-15T05:09:56;11.18;;;8.30;;
46491;SDS011;32206;51.446;6.792;2023-04-15T05:12:21;13.10;;;8.05;;
46491;SDS011;32206;51.446;6.792;2023-04-15T05:14:47;15.10;;;8.75;;
46491;SDS011;32206;51.446;6.792;2023-04-15T05:17:13;20.00;;;8.55;;
46491;SDS011;32206;51.446;6.792;2023-04-15T05:19:39;19.77;;;9.02;;
46491;SDS011;32206;51.446;6.792;2023-04-15T05:22:04;13.98;;;8.38;;
46491;SDS011;32206;51.446;6.792;2023-04-15T05:24:30;14.43;;;8.10;;
46491;SDS011;32206;51.446;6.792;2023-04-15T05:26:56;23.83;;;10.88;;
46491;SDS011;32206;51.446;6.792;2023-04-15T05:29:22;15.95;;;9.10;;
46491;SDS011;32206;51.446;6.792;2023-04-15T05:31:47;12.90;;;9.35;;
46491;SDS011;32206;51.446;6.792;2023-04-15T05:34:13;20.02;;;9.68;;
46491;SDS011;32206;51.446;6.792;2023-04-15T05:46:47;14.35;;;8.93;;
46491;SDS011;32206;51.446;6.792;2023-04-15T05:49:12;41.22;;;24.73;;
46491;SDS011;32206;51.446;6.792;2023-04-15T05:51:38;31.58;;;18.73;;
46491;SDS011;32206;51.446;6.792;2023-04-15T05:54:04;12.30;;;9.60;;
46491;SDS011;32206;51.446;6.792;2023-04-15T05:56:29;15.25;;;9.32;;
46491;SDS011;32206;51.446;6.792;2023-04-15T05:58:55;16.85;;;9.77;;
46491;SDS011;32206;51.446;6.792;2023-04-15T06:01:21;11.32;;;9.48;;
46491;SDS011;32206;51.446;6.792;2023-04-15T06:03:46;15.18;;;9.55;;
46491;SDS011;32206;51.446;6.792;2023-04-15T06:12:44;12.32;;;10.15;;
46491;SDS011;32206;51.446;6.792;2023-04-15T06:15:10;14.85;;;10.73;;
46491;SDS011;32206;51.446;6.792;2023-04-15T06:17:35;15.95;;;9.52;;
46491;SDS011;32206;51.446;6.792;2023-04-15T06:20:02;12.48;;;10.48;;
46491;SDS011;32206;51.446;6.792;2023-04-15T06:25:50;18.67;;;10.63;;
46491;SDS011;32206;51.446;6.792;2023-04-15T06:28:16;15.30;;;10.88;;
46491;SDS011;32206;51.446;6.792;2023-04-15T06:30:42;12.60;;;10.65;;
46491;SDS011;32206;51.446;6.792;2023-04-15T06:33:07;51.17;;;30.33;;
46491;SDS011;32206;51.446;6.792;2023-04-15T06:35:34;28.90;;;15.13;;
46491;SDS011;32206;51.446;6.792;2023-04-15T06:38:00;30.80;;;12.82;;
46491;SDS011;32206;51.446;6.792;2023-04-15T06:40:25;19.02;;;11.15;;
46491;SDS011;32206;51.446;6.792;2023-04-15T06:42:52;25.50;;;12.10;;
46491;SDS011;32206;51.446;6.792;2023-04-15T06:48:39;12.95;;;10.13;;
46491;SDS011;32206;51.446;6.792;2023-04-15T06:51:05;16.40;;;10.75;;
46491;SDS011;32206;51.446;6.792;2023-04-15T06:53:31;16.30;;;10.27;;
46491;SDS011;32206;51.446;6.792;2023-04-15T06:55:56;15.95;;;11.57;;
46491;SDS011;32206;51.446;6.792;2023-04-15T06:58:22;13.68;;;10.73;;
46491;SDS011;32206;51.446;6.792;2023-04-15T07:00:48;13.52;;;10.70;;
46491;SDS011;32206;51.446;6.792;2023-04-15T07:03:13;13.32;;;10.32;;
46491;SDS011;32206;51.446;6.792;2023-04-15T07:05:39;12.02;;;9.05;;
46491;SDS011;32206;51.446;6.792;2023-04-15T07:08:05;10.45;;;9.27;;
46491;SDS011;32206;51.446;6.792;2023-04-15T07:10:32;15.32;;;9.02;;
46491;SDS011;32206;51.446;6.792;2023-04-15T07:12:58;10.07;;;8.55;;
46491;SDS011;32206;51.446;6.792;2023-04-15T07:18:49;10.15;;;7.38;;
46491;SDS011;32206;51.446;6.792;2023-04-15T07:21:15;8.05;;;7.25;;
46491;SDS011;32206;51.446;6.792;2023-04-15T07:27:03;7.68;;;6.60;;
46491;SDS011;32206;51.446;6.792;2023-04-15T07:29:28;7.45;;;6.47;;
46491;SDS011;32206;51.446;6.792;2023-04-15T07:31:54;10.80;;;7.40;;
46491;SDS011;32206;51.446;6.792;2023-04-15T07:34:21;13.52;;;9.18;;
46491;SDS011;32206;51.446;6.792;2023-04-15T07:46:53;9.07;;;6.30;;
46491;SDS011;32206;51.446;6.792;2023-04-15T07:49:20;6.03;;;5.53;;
46491;SDS011;32206;51.446;6.792;2023-04-15T07:51:45;5.68;;;5.03;;
46491;SDS011;32206;51.446;6.792;2023-04-15T07:54:11;6.38;;;4.93;;
46491;SDS011;32206;51.446;6.792;2023-04-15T07:56:38;9.07;;;5.22;;
46491;SDS011;32206;51.446;6.792;2023-04-15T07:59:03;5.13;;;4.63;;
46491;SDS011;32206;51.446;6.792;2023-04-15T08:01:30;5.20;;;4.32;;
46491;SDS011;32206;51.446;6.792;2023-04-15T08:03:57;4.93;;;4.05;;
46491;SDS011;32206;51.446;6.792;2023-04-15T08:06:23;8.52;;;3.72;;
46491;SDS011;32206;51.446;6.792;2023-04-15T08:08:49;6.82;;;3.75;;
46491;SDS011;32206;51.446;6.792;2023-04-15T08:11:14;6.40;;;3.33;;
46491;SDS011;32206;51.446;6.792;2023-04-15T08:13:40;3.83;;;3.20;;
46491;SDS011;32206;51.446;6.792;2023-04-15T08:16:19;4.70;;;3.72;;
46491;SDS011;32206;51.446;6.792;2023-04-15T08:18:50;4.47;;;3.60;;
46491;SDS011;32206;51.446;6.792;2023-04-15T08:21:17;3.35;;;3.05;;
46491;SDS011;32206;51.446;6.792;2023-04-15T08:34:16;4.47;;;2.92;;
46491;SDS011;32206;51.446;6.792;2023-04-15T08:36:42;6.97;;;3.10;;
46491;SDS011;32206;51.446;6.792;2023-04-15T08:39:07;2.63;;;2.42;;
46491;SDS011;32206;51.446;6.792;2023-04-15T08:41:38;3.10;;;2.72;;
46491;SDS011;32206;51.446;6.792;2023-04-15T08:44:10;2.35;;;2.13;;
46491;SDS011;32206;51.446;6.792;2023-04-15T08:49:59;2.72;;;2.50;;
46491;SDS011;32206;51.446;6.792;2023-04-15T08:52:29;3.55;;;2.50;;
46491;SDS011;32206;51.446;6.792;2023-04-15T08:54:55;2.65;;;2.45;;
46491;SDS011;32206;51.446;6.792;2023-04-15T08:57:25;2.95;;;2.17;;
46491;SDS011;32206;51.446;6.792;2023-04-15T08:59:52;3.75;;;2.67;;
46491;SDS011;32206;51.446;6.792;2023-04-15T09:02:20;21.00;;;5.95;;
46491;SDS011;32206;51.446;6.792;2023-04-15T09:04:47;3.83;;;2.38;;
46491;SDS011;32206;51.446;6.792;2023-04-15T09:07:12;2.47;;;2.10;;
46491;SDS011;32206;51.446;6.792;2023-04-15T09:09:38;2.60;;;2.40;;
46491;SDS011;32206;51.446;6.792;2023-04-15T09:12:06;2.67;;;2.47;;
46491;SDS011;32206;51.446;6.792;2023-04-15T09:14:32;2.78;;;2.47;;
46491;SDS011;32206;51.446;6.792;2023-04-15T09:16:59;2.67;;;2.47;;
46491;SDS011;32206;51.446;6.792;2023-04-15T09:19:26;1.88;;;1.77;;
46491;SDS011;32206;51.446;6.792;2023-04-15T09:21:53;2.55;;;2.35;;
46491;SDS011;32206;51.446;6.792;2023-04-15T09:24:20;2.92;;;2.63;;
46491;SDS011;32206;51.446;6.792;2023-04-15T09:26:46;4.88;;;2.30;;
46491;SDS011;32206;51.446;6.792;2023-04-15T09:29:16;2.50;;;2.08;;
46491;SDS011;32206;51.446;6.792;2023-04-15T09:31:42;1.95;;;1.80;;
46491;SDS011;32206;51.446;6.792;2023-04-15T09:34:08;2.83;;;2.58;;
46491;SDS011;32206;51.446;6.792;2023-04-15T09:36:39;4.00;;;2.53;;
46491;SDS011;32206;51.446;6.792;2023-04-15T09:39:17;2.75;;;2.55;;
46491;SDS011;32206;51.446;6.792;2023-04-15T09:41:43;3.58;;;2.55;;
46491;SDS011;32206;51.446;6.792;2023-04-15T09:47:04;2.22;;;2.05;;
46491;SDS011;32206;51.446;6.792;2023-04-15T09:49:30;2.65;;;2.45;;
46491;SDS011;32206;51.446;6.792;2023-04-15T09:55:18;2.63;;;2.42;;
46491;SDS011;32206;51.446;6.792;2023-04-15T09:57:44;2.97;;;2.72;;
46491;SDS011;32206;51.446;6.792;2023-04-15T10:00:11;2.42;;;2.22;;
46491;SDS011;32206;51.446;6.792;2023-04-15T10:02:41;2.63;;;2.42;;
46491;SDS011;32206;51.446;6.792;2023-04-15T10:05:09;2.90;;;2.58;;
46491;SDS011;32206;51.446;6.792;2023-04-15T10:07:36;5.45;;;3.50;;
46491;SDS011;32206;51.446;6.792;2023-04-15T10:10:02;8.00;;;2.80;;
46491;SDS011;32206;51.446;6.792;2023-04-15T10:12:29;2.67;;;2.47;;
46491;SDS011;32206;51.446;6.792;2023-04-15T10:14:58;2.88;;;2.67;;
46491;SDS011;32206;51.446;6.792;2023-04-15T10:20:51;2.88;;;2.67;;
46491;SDS011;32206;51.446;6.792;2023-04-15T10:23:17;3.60;;;3.35;;
46491;SDS011;32206;51.446;6.792;2023-04-15T10:35:38;3.80;;;2.97;;
46491;SDS011;32206;51.446;6.792;2023-04-15T10:43:38;4.80;;;3.20;;
46491;SDS011;32206;51.446;6.792;2023-04-15T10:46:05;5.32;;;3.25;;
46491;SDS011;32206;51.446;6.792;2023-04-15T10:48:30;3.83;;;3.63;;
46491;SDS011;32206;51.446;6.792;2023-04-15T10:50:56;3.63;;;2.97;;
46491;SDS011;32206;51.446;6.792;2023-04-15T10:53:31;3.83;;;3.15;;
46491;SDS011;32206;51.446;6.792;2023-04-15T10:55:57;3.65;;;2.33;;
46491;SDS011;32206;51.446;6.792;2023-04-15T10:58:23;3.63;;;2.97;;
46491;SDS011;32206;51.446;6.792;2023-04-15T11:00:50;2.78;;;2.58;;
46491;SDS011;32206;51.446;6.792;2023-04-15T11:03:33;3.00;;;2.70;;
46491;SDS011;32206;51.446;6.792;2023-04-15T11:06:01;2.88;;;2.25;;
46491;SDS011;32206;51.446;6.792;2023-04-15T11:11:25;3.63;;;3.03;;
46491;SDS011;32206;51.446;6.792;2023-04-15T11:14:27;2.70;;;2.50;;
46491;SDS011;32206;51.446;6.792;2023-04-15T11:23:40;3.40;;;2.75;;
46491;SDS011;32206;51.446;6.792;2023-04-15T11:32:40;3.40;;;3.10;;
46491;SDS011;32206;51.446;6.792;2023-04-15T11:35:06;4.50;;;2.95;;
46491;SDS011;32206;51.446;6.792;2023-04-15T11:37:32;3.03;;;2.83;;
46491;SDS011;32206;51.446;6.792;2023-04-15T11:39:57;3.15;;;2.47;;
46491;SDS011;32206;51.446;6.792;2023-04-15T11:45:53;4.50;;;2.70;;
46491;SDS011;32206;51.446;6.792;2023-04-15T11:48:20;3.03;;;2.72;;
46491;SDS011;32206;51.446;6.792;2023-04-15T11:50:51;2.55;;;2.35;;
46491;SDS011;32206;51.446;6.792;2023-04-15T11:53:18;4.25;;;2.95;;
46491;SDS011;32206;51.446;6.792;2023-04-15T11:55:46;2.63;;;2.35;;
46491;SDS011;32206;51.446;6.792;2023-04-15T11:58:14;2.80;;;2.60;;
46491;SDS011;32206;51.446;6.792;2023-04-15T12:00:41;2.05;;;1.92;;
46491;SDS011;32206;51.446;6.792;2023-04-15T12:06:50;2.20;;;2.00;;
46491;SDS011;32206;51.446;6.792;2023-04-15T12:09:15;2.83;;;2.20;;
46491;SDS011;32206;51.446;6.792;2023-04-15T12:15:04;2.90;;;2.03;;
46491;SDS011;32206;51.446;6.792;2023-04-15T12:24:21;4.57;;;2.30;;
46491;SDS011;32206;51.446;6.792;2023-04-15T12:30:09;1.77;;;1.67;;
46491;SDS011;32206;51.446;6.792;2023-04-15T12:32:35;2.00;;;1.50;;
46491;SDS011;32206;51.446;6.792;2023-04-15T12:35:01;1.50;;;1.40;;
46491;SDS011;32206;51.446;6.792;2023-04-15T12:37:26;1.48;;;1.38;;
46491;SDS011;32206;51.446;6.792;2023-04-15T12:39:52;2.78;;;1.80;;
46491;SDS011;32206;51.446;6.792;2023-04-15T12:42:18;2.72;;;2.53;;
46491;SDS011;32206;51.446;6.792;2023-04-15T12:44:44;1.80;;;1.70;;
46491;SDS011;32206;51.446;6.792;2023-04-15T12:47:10;2.13;;;1.90;;
46491;SDS011;32206;51.446;6.792;2023-04-15T12:49:36;2.13;;;1.50;;
46491;SDS011;32206;51.446;6.792;2023-04-15T12:52:03;2.15;;;1.73;;
46491;SDS011;32206;51.446;6.792;2023-04-15T12:54:29;2.13;;;1.60;;
46491;SDS011;32206;51.446;6.792;2023-04-15T12:56:56;1.83;;;1.40;;
46491;SDS011;32206;51.446;6.792;2023-04-15T12:59:22;3.35;;;1.50;;
46491;SDS011;32206;51.446;6.792;2023-04-15T13:01:48;2.25;;;1.63;;
46491;SDS011;32206;51.446;6.792;2023-04-15T13:04:14;2.85;;;1.50;;
46491;SDS011;32206;51.446;6.792;2023-04-15T13:06:41;2.30;;;1.98;;
46491;SDS011;32206;51.446;6.792;2023-04-15T13:09:06;2.13;;;1.88;;
46491;SDS011;32206;51.446;6.792;2023-04-15T13:11:32;3.75;;;2.40;;
46491;SDS011;32206;51.446;6.792;2023-04-15T13:14:02;13.40;;;2.67;;
46491;SDS011;32206;51.446;6.792;2023-04-15T13:16:28;2.85;;;2.60;;
46491;SDS011;32206;51.446;6.792;2023-04-15T13:18:54;3.67;;;2.55;;
46491;SDS011;32206;51.446;6.792;2023-04-15T13:21:20;3.92;;;2.15;;
46491;SDS011;32206;51.446;6.792;2023-04-15T13:23:47;4.05;;;2.35;;
46491;SDS011;32206;51.446;6.792;2023-04-15T13:32:37;1.70;;;1.60;;
46491;SDS011;32206;51.446;6.792;2023-04-15T13:35:03;2.42;;;1.52;;
46491;SDS011;32206;51.446;6.792;2023-04-15T13:37:29;2.78;;;1.90;;
46491;SDS011;32206;51.446;6.792;2023-04-15T13:39:55;1.63;;;1.52;;
46491;SDS011;32206;51.446;6.792;2023-04-15T13:42:21;1.58;;;1.48;;
46491;SDS011;32206;51.446;6.792;2023-04-15T13:44:50;1.85;;;1.50;;
46491;SDS011;32206;51.446;6.792;2023-04-15T13:47:17;3.88;;;1.75;;
46491;SDS011;32206;51.446;6.792;2023-04-15T13:49:43;2.13;;;1.92;;
46491;SDS011;32206;51.446;6.792;2023-04-15T13:52:10;2.67;;;1.92;;
46491;SDS011;32206;51.446;6.792;2023-04-15T13:54:37;2.13;;;1.73;;
46491;SDS011;32206;51.446;6.792;2023-04-15T13:59:59;2.35;;;1.50;;
46491;SDS011;32206;51.446;6.792;2023-04-15T14:02:25;2.58;;;1.60;;
46491;SDS011;32206;51.446;6.792;2023-04-15T14:07:38;3.08;;;1.63;;
46491;SDS011;32206;51.446;6.792;2023-04-15T14:10:05;6.47;;;1.85;;
46491;SDS011;32206;51.446;6.792;2023-04-15T14:15:53;1.63;;;1.52;;
46491;SDS011;32206;51.446;6.792;2023-04-15T14:18:20;4.40;;;1.60;;
46491;SDS011;32206;51.446;6.792;2023-04-15T14:20:46;2.28;;;2.05;;
46491;SDS011;32206;51.446;6.792;2023-04-15T14:23:11;2.05;;;1.88;;
46491;SDS011;32206;51.446;6.792;2023-04-15T14:25:37;4.78;;;1.48;;
46491;SDS011;32206;51.446;6.792;2023-04-15T14:28:06;2.35;;;1.33;;
46491;SDS011;32206;51.446;6.792;2023-04-15T14:30:31;2.92;;;1.10;;
46491;SDS011;32206;51.446;6.792;2023-04-15T14:32:57;1.60;;;1.30;;
46491;SDS011;32206;51.446;6.792;2023-04-15T14:35:23;1.58;;;1.48;;
46491;SDS011;32206;51.446;6.792;2023-04-15T14:41:12;1.60;;;1.50;;
46491;SDS011;32206;51.446;6.792;2023-04-15T14:43:44;4.85;;;1.88;;
46491;SDS011;32206;51.446;6.792;2023-04-15T14:49:50;3.30;;;1.33;;
46491;SDS011;32206;51.446;6.792;2023-04-15T14:52:16;3.53;;;1.27;;
46491;SDS011;32206;51.446;6.792;2023-04-15T14:54:42;1.80;;;1.70;;
46491;SDS011;32206;51.446;6.792;2023-04-15T14:57:07;1.67;;;1.52;;
46491;SDS011;32206;51.446;6.792;2023-04-15T14:59:33;1.70;;;1.58;;
46491;SDS011;32206;51.446;6.792;2023-04-15T15:01:58;6.00;;;1.50;;
46491;SDS011;32206;51.446;6.792;2023-04-15T15:11:02;1.90;;;1.70;;
46491;SDS011;32206;51.446;6.792;2023-04-15T15:13:28;2.40;;;1.35;;
46491;SDS011;32206;51.446;6.792;2023-04-15T15:15:53;1.63;;;1.52;;
46491;SDS011;32206;51.446;6.792;2023-04-15T15:18:19;2.17;;;1.48;;
46491;SDS011;32206;51.446;6.792;2023-04-15T15:24:07;1.55;;;1.45;;
46491;SDS011;32206;51.446;6.792;2023-04-15T15:33:17;2.28;;;1.35;;
46491;SDS011;32206;51.446;6.792;2023-04-15T15:35:44;4.10;;;1.38;;
46491;SDS011;32206;51.446;6.792;2023-04-15T15:38:10;1.58;;;1.42;;
46491;SDS011;32206;51.446;6.792;2023-04-15T15:40:36;4.03;;;1.27;;
46491;SDS011;32206;51.446;6.792;2023-04-15T15:43:02;3.15;;;1.63;;
46491;SDS011;32206;51.446;6.792;2023-04-15T15:45:28;1.35;;;1.25;;
46491;SDS011;32206;51.446;6.792;2023-04-15T15:47:54;2.15;;;1.95;;
46491;SDS011;32206;51.446;6.792;2023-04-15T15:50:21;3.28;;;2.22;;
46491;SDS011;32206;51.446;6.792;2023-04-15T15:52:47;1.77;;;1.42;;
46491;SDS011;32206;51.446;6.792;2023-04-15T15:55:12;3.22;;;1.17;;
46491;SDS011;32206;51.446;6.792;2023-04-15T16:04:14;3.00;;;1.60;;
46491;SDS011;32206;51.446;6.792;2023-04-15T16:06:39;1.75;;;1.65;;
46491;SDS011;32206;51.446;6.792;2023-04-15T16:09:05;1.83;;;1.70;;
46491;SDS011;32206;51.446;6.792;2023-04-15T16:11:31;3.30;;;2.13;;
46491;SDS011;32206;51.446;6.792;2023-04-15T16:17:15;2.40;;;1.67;;
46491;SDS011;32206;51.446;6.792;2023-04-15T16:23:15;4.68;;;1.40;;
46491;SDS011;32206;51.446;6.792;2023-04-15T16:25:41;2.92;;;1.92;;
46491;SDS011;32206;51.446;6.792;2023-04-15T16:34:33;2.40;;;1.52;;
46491;SDS011;32206;51.446;6.792;2023-04-15T16:36:59;2.45;;;1.58;;
46491;SDS011;32206;51.446;6.792;2023-04-15T16:39:25;2.35;;;1.50;;
46491;SDS011;32206;51.446;6.792;2023-04-15T16:41:51;4.30;;;1.77;;
46491;SDS011;32206;51.446;6.792;2023-04-15T16:47:40;4.55;;;2.20;;
46491;SDS011;32206;51.446;6.792;2023-04-15T16:53:34;7.25;;;2.03;;
46491;SDS011;32206;51.446;6.792;2023-04-15T16:55:59;4.75;;;2.17;;
46491;SDS011;32206;51.446;6.792;2023-04-15T16:58:25;4.68;;;1.70;;
46491;SDS011;32206;51.446;6.792;2023-04-15T17:00:51;2.08;;;1.73;;
46491;SDS011;32206;51.446;6.792;2023-04-15T17:03:17;4.43;;;1.40;;
46491;SDS011;32206;51.446;6.792;2023-04-15T17:05:43;5.07;;;2.25;;
46491;SDS011;32206;51.446;6.792;2023-04-15T17:08:08;6.00;;;2.13;;
46491;SDS011;32206;51.446;6.792;2023-04-15T17:10:34;2.92;;;1.95;;
46491;SDS011;32206;51.446;6.792;2023-04-15T17:13:00;5.50;;;2.53;;
46491;SDS011;32206;51.446;6.792;2023-04-15T17:15:26;4.90;;;2.08;;
46491;SDS011;32206;51.446;6.792;2023-04-15T17:17:52;5.28;;;1.98;;
46491;SDS011;32206;51.446;6.792;2023-04-15T17:20:18;4.10;;;1.88;;
46491;SDS011;32206;51.446;6.792;2023-04-15T17:22:44;5.60;;;2.30;;
46491;SDS011;32206;51.446;6.792;2023-04-15T17:25:09;3.72;;;2.15;;
46491;SDS011;32206;51.446;6.792;2023-04-15T17:30:59;8.95;;;2.53;;
46491;SDS011;32206;51.446;6.792;2023-04-15T17:33:25;2.83;;;1.70;;
46491;SDS011;32206;51.446;6.792;2023-04-15T17:35:51;6.75;;;1.88;;
46491;SDS011;32206;51.446;6.792;2023-04-15T17:38:17;7.35;;;2.55;;
46491;SDS011;32206;51.446;6.792;2023-04-15T17:50:27;9.02;;;1.70;;
46491;SDS011;32206;51.446;6.792;2023-04-15T17:56:15;15.95;;;2.83;;
46491;SDS011;32206;51.446;6.792;2023-04-15T18:05:25;6.68;;;1.80;;
46491;SDS011;32206;51.446;6.792;2023-04-15T18:07:51;5.28;;;2.08;;
46491;SDS011;32206;51.446;6.792;2023-04-15T18:10:17;8.60;;;2.10;;
46491;SDS011;32206;51.446;6.792;2023-04-15T18:12:43;3.63;;;2.17;;
46491;SDS011;32206;51.446;6.792;2023-04-15T18:15:13;2.47;;;2.17;;
46491;SDS011;32206;51.446;6.792;2023-04-15T18:17:38;5.95;;;1.92;;
46491;SDS011;32206;51.446;6.792;2023-04-15T18:20:04;2.83;;;1.52;;
46491;SDS011;32206;51.446;6.792;2023-04-15T18:22:30;3.53;;;1.80;;
46491;SDS011;32206;51.446;6.792;2023-04-15T18:24:56;4.45;;;1.63;;
46491;SDS011;32206;51.446;6.792;2023-04-15T18:27:27;3.90;;;1.95;;
46491;SDS011;32206;51.446;6.792;2023-04-15T18:33:31;4.15;;;1.50;;
46491;SDS011;32206;51.446;6.792;2023-04-15T18:35:57;4.57;;;1.70;;
46491;SDS011;32206;51.446;6.792;2023-04-15T18:41:44;5.50;;;2.28;;
46491;SDS011;32206;51.446;6.792;2023-04-15T18:50:55;3.72;;;1.30;;
46491;SDS011;32206;51.446;6.792;2023-04-15T18:53:22;3.35;;;1.52;;
46491;SDS011;32206;51.446;6.792;2023-04-15T18:55:48;5.95;;;1.75;;
46491;SDS011;32206;51.446;6.792;2023-04-15T18:58:14;6.38;;;2.00;;
46491;SDS011;32206;51.446;6.792;2023-04-15T19:00:39;8.57;;;2.20;;
46491;SDS011;32206;51.446;6.792;2023-04-15T19:03:07;7.15;;;1.98;;
46491;SDS011;32206;51.446;6.792;2023-04-15T19:05:34;11.38;;;3.22;;
46491;SDS011;32206;51.446;6.792;2023-04-15T19:08:00;5.60;;;1.92;;
46491;SDS011;32206;51.446;6.792;2023-04-15T19:10:26;5.65;;;2.03;;
46491;SDS011;32206;51.446;6.792;2023-04-15T19:12:52;10.45;;;3.00;;
46491;SDS011;32206;51.446;6.792;2023-04-15T19:15:18;9.13;;;3.28;;
46491;SDS011;32206;51.446;6.792;2023-04-15T19:17:44;10.48;;;1.80;;
46491;SDS011;32206;51.446;6.792;2023-04-15T19:20:10;7.45;;;1.90;;
46491;SDS011;32206;51.446;6.792;2023-04-15T19:22:35;10.85;;;2.50;;
46491;SDS011;32206;51.446;6.792;2023-04-15T19:25:02;6.43;;;2.45;;
46491;SDS011;32206;51.446;6.792;2023-04-15T19:27:29;4.97;;;1.80;;
46491;SDS011;32206;51.446;6.792;2023-04-15T19:29:55;7.97;;;2.47;;
46491;SDS011;32206;51.446;6.792;2023-04-15T19:32:20;4.40;;;2.13;;
46491;SDS011;32206;51.446;6.792;2023-04-15T19:34:47;3.53;;;1.88;;
46491;SDS011;32206;51.446;6.792;2023-04-15T19:37:12;8.52;;;2.65;;
46491;SDS011;32206;51.446;6.792;2023-04-15T19:39:38;3.85;;;2.30;;
46491;SDS011;32206;51.446;6.792;2023-04-15T19:48:30;7.82;;;2.38;;
46491;SDS011;32206;51.446;6.792;2023-04-15T19:50:55;6.78;;;2.38;;
46491;SDS011;32206;51.446;6.792;2023-04-15T19:53:21;3.15;;;2.15;;
46491;SDS011;32206;51.446;6.792;2023-04-15T19:55:47;9.65;;;2.60;;
46491;SDS011;32206;51.446;6.792;2023-04-15T19:58:13;6.18;;;2.58;;
46491;SDS011;32206;51.446;6.792;2023-04-15T20:00:38;4.57;;;2.20;;
46491;SDS011;32206;51.446;6.792;2023-04-15T20:03:04;7.07;;;2.13;;
46491;SDS011;32206;51.446;6.792;2023-04-15T20:05:30;5.43;;;2.83;;
46491;SDS011;32206;51.446;6.792;2023-04-15T20:07:55;4.38;;;1.98;;
46491;SDS011;32206;51.446;6.792;2023-04-15T20:10:21;4.50;;;2.08;;
46491;SDS011;32206;51.446;6.792;2023-04-15T20:12:47;7.47;;;2.53;;
46491;SDS011;32206;51.446;6.792;2023-04-15T20:15:31;5.43;;;2.45;;
46491;SDS011;32206;51.446;6.792;2023-04-15T20:17:57;8.15;;;2.53;;